createdAt,value
2017-12-23T00:01:22.607Z,80.39
2017-12-23T00:03:50.395Z,78.38
2017-12-23T00:06:18.213Z,79.10
2017-12-23T00:08:45.827Z,79.36
2017-12-23T00:11:13.376Z,78.98
2017-12-23T00:13:40.948Z,80.09
2017-12-23T00:16:08.786Z,79.80
2017-12-23T00:18:36.338Z,80.03
2017-12-23T00:21:03.946Z,80.61
2017-12-23T00:23:31.547Z,80.56
2017-12-23T00:25:59.228Z,80.79
2017-12-23T00:28:26.914Z,81.75
2017-12-23T00:30:54.874Z,81.46
2017-12-23T00:33:22.700Z,81.30
2017-12-23T00:35:50.514Z,82.45
2017-12-23T00:38:18.233Z,82.49
2017-12-23T00:40:45.844Z,82.42
2017-12-23T00:43:13.462Z,82.14
2017-12-23T00:45:41.086Z,81.81
2017-12-23T00:48:08.658Z,81.47
2017-12-23T00:50:36.230Z,81.38
2017-12-23T00:53:03.858Z,81.28
2017-12-23T00:55:31.427Z,81.22
2017-12-23T00:57:59.148Z,80.90
2017-12-23T01:00:26.773Z,80.61
2017-12-23T01:02:54.398Z,80.65
2017-12-23T01:05:21.965Z,80.60
2017-12-23T01:07:49.589Z,80.47
2017-12-23T01:10:17.163Z,80.71
2017-12-23T01:12:44.734Z,80.55
2017-12-23T01:15:12.409Z,80.12
2017-12-23T01:17:40.124Z,80.05
2017-12-23T01:20:07.855Z,79.92
2017-12-23T01:22:35.471Z,79.91
2017-12-23T01:25:03.044Z,80.05
2017-12-23T01:27:30.813Z,80.17
2017-12-23T01:29:58.463Z,79.94
2017-12-23T01:32:26.253Z,80.02
2017-12-23T01:34:54.070Z,80.06
2017-12-23T01:37:21.890Z,79.59
2017-12-23T01:39:49.458Z,79.56
2017-12-23T01:42:17.030Z,79.60
2017-12-23T01:44:44.848Z,79.88
2017-12-23T01:47:12.434Z,80.29
2017-12-23T01:49:40.183Z,80.63
2017-12-23T01:52:07.811Z,80.05
2017-12-23T01:54:35.620Z,80.60
2017-12-23T01:57:03.230Z,80.66
2017-12-23T01:59:30.906Z,80.82
2017-12-23T02:01:58.479Z,81.10
2017-12-23T02:04:26.294Z,81.38
2017-12-23T02:06:54.114Z,80.50
2017-12-23T02:09:21.852Z,80.40
2017-12-23T02:11:49.424Z,80.63
2017-12-23T02:14:17.057Z,81.34
2017-12-23T02:16:44.632Z,81.66
2017-12-23T02:19:12.319Z,81.65
2017-12-23T02:21:39.950Z,81.50
2017-12-23T02:24:07.499Z,81.35
2017-12-23T02:26:35.164Z,81.32
2017-12-23T02:29:02.976Z,81.51
2017-12-23T02:31:30.583Z,81.64
2017-12-23T02:33:58.430Z,82.03
2017-12-23T02:36:26.231Z,81.87
2017-12-23T02:38:53.796Z,81.95
2017-12-23T02:41:21.339Z,81.78
2017-12-23T02:43:49.186Z,81.71
2017-12-23T02:46:17.008Z,81.49
2017-12-23T02:48:44.592Z,81.29
2017-12-23T02:51:12.232Z,80.83
2017-12-23T02:53:39.815Z,80.96
2017-12-23T02:56:07.419Z,80.69
2017-12-23T02:58:35.294Z,80.61
2017-12-23T03:01:02.883Z,80.97
2017-12-23T03:03:30.592Z,81.09
2017-12-23T03:05:58.222Z,80.98
2017-12-23T03:08:25.968Z,80.62
2017-12-23T03:10:53.538Z,80.95
2017-12-23T03:13:21.403Z,80.95
2017-12-23T03:15:49.001Z,81.49
2017-12-23T03:18:16.738Z,81.52
2017-12-23T03:20:44.347Z,81.18
2017-12-23T03:23:11.910Z,81.22
2017-12-23T03:25:39.482Z,81.10
2017-12-23T03:28:07.059Z,81.13
2017-12-23T03:30:34.827Z,80.72
2017-12-23T03:33:02.408Z,81.16
2017-12-23T03:35:29.970Z,81.17
2017-12-23T03:37:57.539Z,81.81
2017-12-23T03:40:25.295Z,82.00
2017-12-23T03:42:52.870Z,81.94
2017-12-23T03:45:20.430Z,82.01
2017-12-23T03:47:48.039Z,82.37
2017-12-23T03:50:15.635Z,82.05
2017-12-23T03:52:43.384Z,81.41
2017-12-23T03:55:10.988Z,81.20
2017-12-23T03:57:38.609Z,81.23
2017-12-23T04:00:06.435Z,81.50
2017-12-23T04:02:34.089Z,81.64
2017-12-23T04:05:01.837Z,81.43
2017-12-23T04:07:29.587Z,81.05
2017-12-23T04:09:57.196Z,80.88
2017-12-23T04:12:25.023Z,80.83
2017-12-23T04:14:52.584Z,81.04
2017-12-23T04:17:20.144Z,81.02
2017-12-23T04:19:47.712Z,80.96
2017-12-23T04:22:15.468Z,80.75
2017-12-23T04:24:43.183Z,80.47
2017-12-23T04:27:10.746Z,80.53
2017-12-23T04:29:38.327Z,80.87
2017-12-23T04:32:05.904Z,80.65
2017-12-23T04:34:33.679Z,80.83
2017-12-23T04:37:01.246Z,80.70
2017-12-23T04:39:28.810Z,80.41
2017-12-23T04:41:56.629Z,79.18
2017-12-23T04:44:24.207Z,78.63
2017-12-23T04:46:51.774Z,79.40
2017-12-23T04:49:19.495Z,79.16
2017-12-23T04:51:47.305Z,79.70
2017-12-23T04:54:14.874Z,80.05
2017-12-23T04:56:42.636Z,80.26
2017-12-23T04:59:10.205Z,80.27
2017-12-23T05:01:37.940Z,80.11
2017-12-23T05:04:05.656Z,79.54
2017-12-23T05:06:33.222Z,79.38
2017-12-23T05:09:00.788Z,79.10
2017-12-23T05:11:28.354Z,79.00
2017-12-23T05:13:55.927Z,78.44
2017-12-23T05:16:23.676Z,78.02
2017-12-23T05:18:51.241Z,77.98
2017-12-23T05:21:18.993Z,78.56
2017-12-23T05:23:46.705Z,78.86
2017-12-23T05:26:14.423Z,78.66
2017-12-23T05:28:41.986Z,78.58
2017-12-23T05:31:09.572Z,78.58
2017-12-23T05:33:37.174Z,78.39
2017-12-23T05:36:04.914Z,78.29
2017-12-23T05:38:32.477Z,77.84
2017-12-23T05:41:00.050Z,77.42
2017-12-23T05:43:27.766Z,76.78
2017-12-23T05:45:55.399Z,76.47
2017-12-23T05:48:22.947Z,76.51
2017-12-23T05:50:50.503Z,76.79
2017-12-23T05:53:18.195Z,76.00
2017-12-23T05:55:45.955Z,76.10
2017-12-23T05:58:13.519Z,76.03
2017-12-23T06:00:41.290Z,76.06
2017-12-23T06:03:09.108Z,75.63
2017-12-23T06:05:36.800Z,76.06
2017-12-23T06:08:04.516Z,76.08
2017-12-23T06:10:32.067Z,75.59
2017-12-23T06:12:59.649Z,75.69
2017-12-23T06:15:27.294Z,76.84
2017-12-23T06:17:54.874Z,77.33
2017-12-23T06:20:22.438Z,77.39
2017-12-23T06:22:50.045Z,77.47
2017-12-23T06:25:17.601Z,77.70
2017-12-23T06:27:45.162Z,78.25
2017-12-23T06:30:12.722Z,78.27
2017-12-23T06:32:40.294Z,78.29
2017-12-23T06:35:07.858Z,78.17
2017-12-23T06:37:35.656Z,78.11
2017-12-23T06:40:03.478Z,77.45
2017-12-23T06:42:31.043Z,77.64
2017-12-23T06:44:58.811Z,76.88
2017-12-23T06:47:26.410Z,77.25
2017-12-23T06:49:53.978Z,76.66
2017-12-23T06:52:21.540Z,76.72
2017-12-23T06:54:49.383Z,76.67
2017-12-23T06:57:16.942Z,75.97
2017-12-23T06:59:44.719Z,75.92
2017-12-23T07:02:12.542Z,76.46
2017-12-23T07:04:40.259Z,76.93
2017-12-23T07:07:07.975Z,77.22
2017-12-23T07:09:35.794Z,78.91
2017-12-23T07:12:03.611Z,78.77
2017-12-23T07:14:31.167Z,78.86
2017-12-23T07:16:58.920Z,78.55
2017-12-23T07:19:26.464Z,78.29
2017-12-23T07:21:54.024Z,78.45
2017-12-23T07:24:21.594Z,78.37
2017-12-23T07:26:49.146Z,77.87
2017-12-23T07:29:17.037Z,77.69
2017-12-23T07:31:44.618Z,78.08
2017-12-23T07:34:12.182Z,77.89
2017-12-23T07:36:39.728Z,77.97
2017-12-23T07:39:07.400Z,77.69
2017-12-23T07:41:34.988Z,77.12
2017-12-23T07:44:02.560Z,77.05
2017-12-23T07:46:30.130Z,76.80
2017-12-23T07:48:57.711Z,76.71
2017-12-23T07:51:25.294Z,77.31
2017-12-23T07:53:53.118Z,77.00
2017-12-23T07:56:20.720Z,77.24
2017-12-23T07:58:48.419Z,76.74
2017-12-23T08:01:16.163Z,76.78
2017-12-23T08:03:43.752Z,75.05
2017-12-23T08:06:11.400Z,74.33
2017-12-23T08:08:39.026Z,74.22
2017-12-23T08:11:06.590Z,73.93
2017-12-23T08:13:34.158Z,73.18
2017-12-23T08:16:01.837Z,70.96
2017-12-23T08:18:29.597Z,69.81
2017-12-23T08:20:57.170Z,69.29
2017-12-23T08:23:24.774Z,70.09
2017-12-23T08:25:52.350Z,68.61
2017-12-23T08:28:20.165Z,67.55
2017-12-23T08:30:47.830Z,66.17
2017-12-23T08:33:15.390Z,65.91
2017-12-23T08:35:43.088Z,67.02
2017-12-23T08:38:10.834Z,67.83
2017-12-23T08:40:38.442Z,67.94
2017-12-23T08:43:06.224Z,68.10
2017-12-23T08:45:33.846Z,68.21
2017-12-23T08:48:01.453Z,69.53
2017-12-23T08:50:29.179Z,70.01
2017-12-23T08:52:56.996Z,69.61
2017-12-23T08:55:24.793Z,69.67
2017-12-23T08:57:52.510Z,69.25
2017-12-23T09:00:20.146Z,68.78
2017-12-23T09:02:47.727Z,68.60
2017-12-23T09:05:15.379Z,68.36
2017-12-23T09:07:43.106Z,68.80
2017-12-23T09:10:10.926Z,69.74
2017-12-23T09:12:38.497Z,70.51
2017-12-23T09:15:06.086Z,71.30
2017-12-23T09:17:33.737Z,70.07
2017-12-23T09:20:01.290Z,69.54
2017-12-23T09:22:29.115Z,69.47
2017-12-23T09:24:56.672Z,69.62
2017-12-23T09:27:24.458Z,69.81
2017-12-23T09:29:52.270Z,69.35
2017-12-23T09:32:19.882Z,70.28
2017-12-23T09:34:47.578Z,69.42
2017-12-23T09:37:15.142Z,67.67
2017-12-23T09:39:42.706Z,63.78
2017-12-23T09:42:10.263Z,60.52
2017-12-23T09:44:38.078Z,57.39
2017-12-23T09:47:05.784Z,55.56
2017-12-23T09:49:33.355Z,53.25
2017-12-23T09:52:00.935Z,53.33
2017-12-23T09:54:28.750Z,54.60
2017-12-23T09:56:56.359Z,55.99
2017-12-23T09:59:24.185Z,55.56
2017-12-23T10:01:51.881Z,53.70
2017-12-23T10:04:19.501Z,52.29
2017-12-23T10:06:47.134Z,51.16
2017-12-23T10:09:14.694Z,49.80
2017-12-23T10:11:42.576Z,49.20
2017-12-23T10:14:10.146Z,48.91
2017-12-23T10:16:37.914Z,48.32
2017-12-23T10:19:05.522Z,47.04
2017-12-23T10:21:33.117Z,46.50
2017-12-23T10:24:00.865Z,45.21
2017-12-23T10:26:28.690Z,45.35
2017-12-23T10:28:56.292Z,45.15
2017-12-23T10:31:24.002Z,45.32
2017-12-23T10:33:51.719Z,45.82
2017-12-23T10:36:19.296Z,46.41
2017-12-23T10:38:47.052Z,45.28
2017-12-23T10:41:14.617Z,44.12
2017-12-23T10:43:42.255Z,43.56
2017-12-23T10:46:09.994Z,44.59
2017-12-23T10:48:37.698Z,45.66
2017-12-23T10:51:05.269Z,45.39
2017-12-23T10:53:33.737Z,43.78
2017-12-23T10:56:01.495Z,42.51
2017-12-23T10:58:29.078Z,43.29
2017-12-23T11:00:56.736Z,42.14
2017-12-23T11:03:24.306Z,42.87
2017-12-23T11:05:51.886Z,40.90
2017-12-23T11:08:19.595Z,40.38
2017-12-23T11:10:47.358Z,41.21
2017-12-23T11:13:14.995Z,41.52
2017-12-23T11:15:42.722Z,41.21
2017-12-23T11:18:10.343Z,40.16
2017-12-23T11:20:37.926Z,40.38
2017-12-23T11:23:05.551Z,41.19
2017-12-23T11:25:33.118Z,40.72
2017-12-23T11:28:00.690Z,40.81
2017-12-23T11:30:28.253Z,38.83
2017-12-23T11:32:55.822Z,38.38
2017-12-23T11:35:23.393Z,37.31
2017-12-23T11:37:51.017Z,36.09
2017-12-23T11:40:18.651Z,35.10
2017-12-23T11:42:46.295Z,36.35
2017-12-23T11:45:13.866Z,35.23
2017-12-23T11:47:41.489Z,33.98
2017-12-23T11:50:09.127Z,34.96
2017-12-23T11:52:36.740Z,34.38
2017-12-23T11:55:04.318Z,34.46
2017-12-23T11:57:31.894Z,33.57
2017-12-23T11:59:59.566Z,34.51
2017-12-23T12:02:27.126Z,35.67
2017-12-23T12:04:54.699Z,37.46
2017-12-23T12:07:22.311Z,37.03
2017-12-23T12:09:49.966Z,37.37
2017-12-23T12:12:17.624Z,37.91
2017-12-23T12:14:45.227Z,40.22
2017-12-23T12:17:12.855Z,41.75
2017-12-23T12:19:40.436Z,44.68
2017-12-23T12:22:07.998Z,45.58
2017-12-23T12:24:35.746Z,46.49
2017-12-23T12:27:03.311Z,48.34
2017-12-23T12:29:30.852Z,48.76
2017-12-23T12:31:58.480Z,49.00
2017-12-23T12:34:26.112Z,51.22
2017-12-23T12:36:53.840Z,51.46
2017-12-23T12:39:21.652Z,53.00
2017-12-23T12:41:49.219Z,52.60
2017-12-23T12:44:16.783Z,53.80
2017-12-23T12:46:44.396Z,53.54
2017-12-23T12:49:12.006Z,54.61
2017-12-23T12:51:39.631Z,53.32
2017-12-23T12:54:07.194Z,54.29
2017-12-23T12:56:34.818Z,54.75
2017-12-23T12:59:02.383Z,54.81
2017-12-23T13:01:29.949Z,55.21
2017-12-23T13:03:57.729Z,55.13
2017-12-23T13:06:25.447Z,54.28
2017-12-23T13:08:53.090Z,54.87
2017-12-23T13:11:20.883Z,54.43
2017-12-23T13:13:48.701Z,54.95
2017-12-23T13:16:16.264Z,55.54
2017-12-23T13:18:44.063Z,56.11
2017-12-23T13:21:11.673Z,56.41
2017-12-23T13:23:39.225Z,56.05
2017-12-23T13:26:06.800Z,56.50
2017-12-23T13:28:34.363Z,56.82
2017-12-23T13:31:02.154Z,57.26
2017-12-23T13:33:29.970Z,55.83
2017-12-23T13:35:57.526Z,57.59
2017-12-23T13:38:25.307Z,56.64
2017-12-23T13:40:52.915Z,57.02
2017-12-23T13:43:20.642Z,56.47
2017-12-23T13:45:48.194Z,56.23
2017-12-23T13:48:15.782Z,56.62
2017-12-23T13:50:43.350Z,55.62
2017-12-23T13:53:11.004Z,55.75
2017-12-23T13:55:38.587Z,56.04
2017-12-23T13:58:06.160Z,55.85
2017-12-23T14:00:33.864Z,56.35
2017-12-23T14:03:01.797Z,56.68
2017-12-23T14:05:29.358Z,56.78
2017-12-23T14:07:56.918Z,57.06
2017-12-23T14:10:24.552Z,57.37
2017-12-23T14:12:52.147Z,57.68
2017-12-23T14:15:19.765Z,57.20
2017-12-23T14:17:47.370Z,58.50
2017-12-23T14:20:14.930Z,59.08
2017-12-23T14:22:42.486Z,59.68
2017-12-23T14:25:10.050Z,58.99
2017-12-23T14:27:37.863Z,59.28
2017-12-23T14:30:05.581Z,59.80
2017-12-23T14:32:33.399Z,60.11
2017-12-23T14:35:00.965Z,60.53
2017-12-23T14:37:28.709Z,60.48
2017-12-23T14:39:56.337Z,60.57
2017-12-23T14:42:23.898Z,60.94
2017-12-23T14:44:51.471Z,61.42
2017-12-23T14:47:19.042Z,62.51
2017-12-23T14:49:46.788Z,62.59
2017-12-23T14:52:14.378Z,62.90
2017-12-23T14:54:42.160Z,62.73
2017-12-23T14:57:09.714Z,63.08
2017-12-23T14:59:37.477Z,63.52
2017-12-23T15:02:05.168Z,64.08
2017-12-23T15:04:33.032Z,64.82
2017-12-23T15:07:00.633Z,65.26
2017-12-23T15:09:28.193Z,64.36
2017-12-23T15:11:55.958Z,65.25
2017-12-23T15:14:23.513Z,65.40
2017-12-23T15:16:51.322Z,65.09
2017-12-23T15:19:18.882Z,65.17
2017-12-23T15:21:46.439Z,66.31
2017-12-23T15:24:14.277Z,66.52
2017-12-23T15:26:41.994Z,67.46
2017-12-23T15:29:09.547Z,67.62
2017-12-23T15:31:37.120Z,68.52
2017-12-23T15:34:04.660Z,68.14
2017-12-23T15:36:32.235Z,68.64
2017-12-23T15:38:59.801Z,67.99
2017-12-23T15:41:27.362Z,68.72
2017-12-23T15:43:55.118Z,69.08
2017-12-23T15:46:22.692Z,70.16
2017-12-23T15:48:50.425Z,70.09
2017-12-23T15:51:18.172Z,70.33
2017-12-23T15:53:45.991Z,70.16
2017-12-23T15:56:13.562Z,70.38
2017-12-23T15:58:41.126Z,70.68
2017-12-23T16:01:08.844Z,70.52
2017-12-23T16:03:36.444Z,70.49
2017-12-23T16:06:04.056Z,70.39
2017-12-23T16:08:31.607Z,70.52
2017-12-23T16:10:59.161Z,70.46
2017-12-23T16:13:26.743Z,70.73
2017-12-23T16:15:54.559Z,71.76
2017-12-23T16:18:22.270Z,72.03
2017-12-23T16:20:50.089Z,72.45
2017-12-23T16:23:17.906Z,72.56
2017-12-23T16:25:45.511Z,72.69
2017-12-23T16:28:13.079Z,72.71
2017-12-23T16:30:40.717Z,73.01
2017-12-23T16:33:08.478Z,73.52
2017-12-23T16:35:36.196Z,73.14
2017-12-23T16:38:03.810Z,73.54
2017-12-23T16:40:31.667Z,73.66
2017-12-23T16:42:59.231Z,73.60
2017-12-23T16:45:26.813Z,73.66
2017-12-23T16:47:54.586Z,73.82
2017-12-23T16:50:22.176Z,74.05
2017-12-23T16:52:49.813Z,74.12
2017-12-23T16:55:17.379Z,73.74
2017-12-23T16:57:44.951Z,73.44
2017-12-23T17:00:12.775Z,73.54
2017-12-23T17:02:40.344Z,74.22
2017-12-23T17:05:07.904Z,74.41
2017-12-23T17:07:35.497Z,74.90
2017-12-23T17:10:03.344Z,74.67
2017-12-23T17:12:31.169Z,74.46
2017-12-23T17:14:58.985Z,74.47
2017-12-23T17:17:26.554Z,74.53
2017-12-23T17:19:54.320Z,74.80
2017-12-23T17:22:21.914Z,74.65
2017-12-23T17:24:49.518Z,75.12
2017-12-23T17:27:17.422Z,75.67
2017-12-23T17:32:50.878Z,75.44
2017-12-23T17:35:18.522Z,75.42
2017-12-23T17:37:46.078Z,75.47
2017-12-23T17:40:13.638Z,75.68
2017-12-23T17:42:41.203Z,75.92
2017-12-23T17:45:08.825Z,75.93
2017-12-23T17:47:36.439Z,75.91
2017-12-23T17:50:04.064Z,75.85
2017-12-23T17:52:31.788Z,75.46
2017-12-23T17:54:59.370Z,75.84
2017-12-23T17:57:26.966Z,75.68
2017-12-23T17:59:54.582Z,75.44
2017-12-23T18:02:22.158Z,75.79
2017-12-23T18:04:49.852Z,75.95
2017-12-23T18:07:17.567Z,76.35
2017-12-23T18:09:45.130Z,76.28
2017-12-23T18:12:12.930Z,75.88
2017-12-23T18:14:40.690Z,75.99
2017-12-23T18:17:08.431Z,76.19
2017-12-23T18:19:36.005Z,76.22
2017-12-23T18:22:03.564Z,75.97
2017-12-23T18:24:31.210Z,76.23
2017-12-23T18:26:58.806Z,76.20
2017-12-23T18:29:26.541Z,75.96
2017-12-23T18:31:54.252Z,75.95
2017-12-23T18:34:21.971Z,76.14
2017-12-23T18:36:49.662Z,76.02
2017-12-23T18:39:17.221Z,76.08
2017-12-23T18:41:44.947Z,76.49
2017-12-23T18:44:12.542Z,75.94
2017-12-23T18:46:40.185Z,76.08
2017-12-23T18:49:07.921Z,76.18
2017-12-23T18:51:35.498Z,75.95
2017-12-23T18:54:03.197Z,75.94
2017-12-23T18:56:30.766Z,76.39
2017-12-23T18:58:58.318Z,76.44
2017-12-23T19:01:25.937Z,76.56
2017-12-23T19:03:53.642Z,76.79
2017-12-23T19:06:21.215Z,77.00
2017-12-23T19:08:48.793Z,76.61
2017-12-23T19:11:16.561Z,77.18
2017-12-23T19:13:44.174Z,76.90
2017-12-23T19:16:23.737Z,76.88
2017-12-23T19:18:51.456Z,77.17
2017-12-23T19:21:19.031Z,76.99
2017-12-23T19:23:46.793Z,76.92
2017-12-23T19:26:14.362Z,76.88
2017-12-23T19:28:41.983Z,76.76
2017-12-23T19:31:09.847Z,76.81
2017-12-23T19:33:37.419Z,77.07
2017-12-23T19:36:05.146Z,77.28
2017-12-23T19:38:32.720Z,77.09
2017-12-23T19:41:00.277Z,77.19
2017-12-23T19:43:28.136Z,77.51
2017-12-23T19:45:55.694Z,77.66
2017-12-23T19:48:23.261Z,77.70
2017-12-23T19:50:51.190Z,77.78
2017-12-23T19:53:18.754Z,78.19
2017-12-23T19:55:46.627Z,78.01
2017-12-23T19:58:14.192Z,78.23
2017-12-23T20:00:41.830Z,78.40
2017-12-23T20:03:09.394Z,78.36
2017-12-23T20:05:37.199Z,78.36
2017-12-23T20:08:04.824Z,78.32
2017-12-23T20:10:32.386Z,78.30
2017-12-23T20:12:59.951Z,78.04
2017-12-23T20:15:27.526Z,78.24
2017-12-23T20:17:55.287Z,78.48
2017-12-23T20:20:22.934Z,78.52
2017-12-23T20:22:50.506Z,78.68
2017-12-23T20:25:18.342Z,79.01
2017-12-23T20:27:45.914Z,78.97
2017-12-23T20:30:13.489Z,79.11
2017-12-23T20:32:41.107Z,79.03
2017-12-23T20:35:08.674Z,78.99
2017-12-23T20:37:36.238Z,78.70
2017-12-23T20:40:03.852Z,78.77
2017-12-23T20:42:31.407Z,78.56
2017-12-23T20:44:59.145Z,78.65
2017-12-23T20:47:26.863Z,78.68
2017-12-23T20:49:54.579Z,78.90
2017-12-23T20:52:22.150Z,78.65
2017-12-23T20:54:49.720Z,78.72
2017-12-23T20:57:17.372Z,78.84
2017-12-23T20:59:44.927Z,79.03
2017-12-23T21:02:12.495Z,79.09
2017-12-23T21:04:40.074Z,79.11
2017-12-23T21:07:07.758Z,79.22
2017-12-23T21:09:35.381Z,79.49
2017-12-23T21:12:03.180Z,79.47
2017-12-23T21:14:30.740Z,79.22
2017-12-23T21:16:58.304Z,79.63
2017-12-23T21:19:26.035Z,79.74
2017-12-23T21:21:53.698Z,79.89
2017-12-23T21:24:21.470Z,80.14
2017-12-23T21:26:49.189Z,80.13
2017-12-23T21:29:16.774Z,80.17
2017-12-23T21:31:44.338Z,80.42
2017-12-23T21:34:11.974Z,80.55
2017-12-23T21:36:39.761Z,80.62
2017-12-23T21:39:07.322Z,81.13
2017-12-23T21:41:34.904Z,80.83
2017-12-23T21:44:02.452Z,81.33
2017-12-23T21:46:30.182Z,81.70
2017-12-23T21:48:57.949Z,81.85
2017-12-23T21:51:25.668Z,81.98
2017-12-23T21:53:53.239Z,81.61
2017-12-23T21:56:20.802Z,81.74
2017-12-23T21:58:48.439Z,81.55
2017-12-23T22:01:15.998Z,82.13
2017-12-23T22:03:43.574Z,81.66
2017-12-23T22:06:11.142Z,81.79
2017-12-23T22:08:38.710Z,82.28
2017-12-23T22:11:06.410Z,82.50
2017-12-23T22:13:33.974Z,82.47
2017-12-23T22:16:01.746Z,82.31
2017-12-23T22:18:29.563Z,82.28
2017-12-23T22:20:57.222Z,82.15
2017-12-23T22:23:25.000Z,82.04
2017-12-23T22:25:52.657Z,82.13
2017-12-23T22:28:20.227Z,81.93
2017-12-23T22:30:47.807Z,82.08
2017-12-23T22:33:15.378Z,81.95
2017-12-23T22:35:43.189Z,82.61
2017-12-23T22:38:11.009Z,82.46
2017-12-23T22:40:38.579Z,82.25
2017-12-23T22:43:06.171Z,82.13
2017-12-23T22:45:33.857Z,81.86
2017-12-23T22:48:01.498Z,81.89
2017-12-23T22:50:29.297Z,81.77
2017-12-23T22:52:56.866Z,82.02
2017-12-23T22:55:24.528Z,82.45
2017-12-23T22:57:52.102Z,82.21
2017-12-23T23:00:19.719Z,81.90
2017-12-23T23:02:47.293Z,82.15
2017-12-23T23:05:15.105Z,82.40
2017-12-23T23:07:42.678Z,82.35
2017-12-23T23:10:10.262Z,82.63
2017-12-23T23:12:37.880Z,82.65
2017-12-23T23:15:05.468Z,82.54
2017-12-23T23:17:33.042Z,82.43
2017-12-23T23:20:00.812Z,82.26
2017-12-23T23:22:28.530Z,82.98
2017-12-23T23:24:56.249Z,83.26
2017-12-23T23:27:23.810Z,83.13
2017-12-23T23:29:51.379Z,83.16
2017-12-23T23:32:18.958Z,82.84
2017-12-23T23:34:46.513Z,82.77
2017-12-23T23:37:14.250Z,83.18
2017-12-23T23:39:41.834Z,83.25
2017-12-23T23:42:09.379Z,82.75
2017-12-23T23:44:37.193Z,83.41
2017-12-23T23:47:04.750Z,83.29
2017-12-23T23:49:32.343Z,82.96
2017-12-23T23:51:59.878Z,83.16
2017-12-23T23:54:27.470Z,83.02
2017-12-23T23:56:55.097Z,83.01
2017-12-23T23:59:22.655Z,82.90
